createdAt,value
2019-05-06T00:00:35.288Z,91.3481
2019-05-06T00:01:38.307Z,91.2932
2019-05-06T00:02:43.448Z,91.3115
2019-05-06T00:03:47.293Z,91.3390
2019-05-06T00:04:51.287Z,91.2932
2019-05-06T00:05:54.466Z,91.3436
2019-05-06T00:06:58.275Z,91.1223
2019-05-06T00:08:03.897Z,90.7011
2019-05-06T00:09:07.289Z,90.1244
2019-05-06T00:10:13.392Z,89.5659
2019-05-06T00:11:16.303Z,89.5033
2019-05-06T00:12:20.286Z,89.5628
2019-05-06T00:13:24.147Z,89.1142
2019-05-06T00:14:27.266Z,89.0684
2019-05-06T00:15:31.277Z,89.7765
2019-05-06T00:16:34.906Z,91.0765
2019-05-06T00:17:38.325Z,91.9615
2019-05-06T00:18:41.306Z,92.5689
2019-05-06T00:19:45.317Z,92.9534
2019-05-06T00:20:48.248Z,93.5592
2019-05-06T00:21:51.281Z,93.6996
2019-05-06T00:22:55.275Z,93.6034
2019-05-06T00:23:58.286Z,93.3288
2019-05-06T00:25:02.297Z,93.2097
2019-05-06T00:26:05.283Z,92.7886
2019-05-06T00:27:09.302Z,92.6604
2019-05-06T00:28:13.657Z,92.2911
2019-05-06T00:29:17.317Z,91.9051
2019-05-06T00:30:21.288Z,91.9097
2019-05-06T00:31:24.285Z,92.1218
2019-05-06T00:32:28.290Z,92.0562
2019-05-06T00:33:31.292Z,92.5826
2019-05-06T00:34:35.337Z,93.0037
2019-05-06T00:35:38.294Z,92.9671
2019-05-06T00:36:43.285Z,93.0907
2019-05-06T00:37:47.295Z,93.0816
2019-05-06T00:38:50.302Z,92.9397
2019-05-06T00:39:54.320Z,92.5872
2019-05-06T00:40:57.307Z,92.4468
2019-05-06T00:42:01.324Z,91.9738
2019-05-06T00:43:04.818Z,91.7510
2019-05-06T00:44:08.317Z,92.0012
2019-05-06T00:45:13.592Z,92.2271
2019-05-06T00:46:16.285Z,92.5154
2019-05-06T00:47:20.286Z,92.2484
2019-05-06T00:48:24.435Z,91.5572
2019-05-06T00:49:28.267Z,90.7027
2019-05-06T00:50:31.295Z,89.4942
2019-05-06T00:51:34.300Z,88.2200
2019-05-06T00:52:38.308Z,87.7821
2019-05-06T00:53:41.265Z,88.3955
2019-05-06T00:54:45.267Z,88.0278
2019-05-06T00:55:48.335Z,88.4215
2019-05-06T00:56:51.280Z,88.2429
2019-05-06T00:57:54.540Z,87.8645
2019-05-06T00:58:58.283Z,88.6061
2019-05-06T01:00:04.168Z,88.6046
2019-05-06T01:01:07.303Z,89.4102
2019-05-06T01:02:11.294Z,91.0460
2019-05-06T01:03:14.298Z,91.6442
2019-05-06T01:04:18.316Z,92.1797
2019-05-06T01:05:21.285Z,92.3629
2019-05-06T01:06:24.660Z,92.2759
2019-05-06T01:07:28.297Z,91.9661
2019-05-06T01:08:31.286Z,92.1065
2019-05-06T01:09:35.317Z,92.2682
2019-05-06T01:10:38.301Z,92.2637
2019-05-06T01:11:42.316Z,92.4086
2019-05-06T01:12:47.279Z,92.3186
2019-05-06T01:13:50.310Z,92.3812
2019-05-06T01:14:54.626Z,92.4331
2019-05-06T01:15:58.275Z,92.4147
2019-05-06T01:17:01.334Z,92.6009
2019-05-06T01:18:04.362Z,92.3354
2019-05-06T01:19:08.288Z,92.1385
2019-05-06T01:20:11.261Z,92.1706
2019-05-06T01:21:14.667Z,92.2042
2019-05-06T01:22:18.306Z,91.8563
2019-05-06T01:23:23.379Z,91.9478
2019-05-06T01:24:27.265Z,91.9280
2019-05-06T01:25:30.291Z,90.7607
2019-05-06T01:26:34.339Z,90.0801
2019-05-06T01:27:37.278Z,89.5720
2019-05-06T01:28:40.296Z,89.0364
2019-05-06T01:29:44.288Z,88.6458
2019-05-06T01:30:47.311Z,86.5232
2019-05-06T01:31:51.337Z,87.2053
2019-05-06T01:32:54.488Z,87.1031
2019-05-06T01:33:58.288Z,87.1168
2019-05-06T01:35:00.271Z,87.3289
2019-05-06T01:36:04.537Z,87.0115
2019-05-06T01:37:07.320Z,86.8070
2019-05-06T01:38:10.279Z,86.7292
2019-05-06T01:39:14.298Z,86.3859
2019-05-06T01:40:17.307Z,85.8076
2019-05-06T01:41:21.265Z,85.5436
2019-05-06T01:42:24.656Z,85.4566
2019-05-06T01:43:27.286Z,85.3330
2019-05-06T01:44:30.425Z,84.6601
2019-05-06T01:45:34.874Z,84.4404
2019-05-06T01:46:38.320Z,84.2786
2019-05-06T01:47:41.300Z,84.7059
2019-05-06T01:48:45.289Z,84.7288
2019-05-06T01:49:48.288Z,84.5350
2019-05-06T01:50:51.299Z,84.5502
2019-05-06T01:51:55.294Z,84.5182
2019-05-06T01:52:58.312Z,84.4663
2019-05-06T01:54:03.752Z,84.4083
2019-05-06T01:55:07.286Z,84.1321
2019-05-06T01:56:11.304Z,85.5070
2019-05-06T01:57:14.274Z,85.5116
2019-05-06T01:58:17.350Z,85.2445
2019-05-06T01:59:21.272Z,85.5558
2019-05-06T02:00:24.294Z,85.0431
2019-05-06T02:01:28.283Z,84.6326
2019-05-06T02:02:31.303Z,84.5212
2019-05-06T02:03:35.328Z,84.1550
2019-05-06T02:04:38.292Z,84.2832
2019-05-06T02:05:41.270Z,84.0650
2019-05-06T02:06:45.290Z,84.1138
2019-05-06T02:07:48.256Z,82.9969
2019-05-06T02:08:53.994Z,83.6835
2019-05-06T02:09:57.310Z,83.2731
2019-05-06T02:11:01.305Z,83.5920
2019-05-06T02:12:04.678Z,83.9673
2019-05-06T02:13:08.325Z,83.9628
2019-05-06T02:14:13.994Z,84.0238
2019-05-06T02:15:16.291Z,84.0909
2019-05-06T02:16:20.275Z,84.0085
2019-05-06T02:17:23.875Z,84.8386
2019-05-06T02:18:27.311Z,85.4826
2019-05-06T02:19:30.269Z,85.7160
2019-05-06T02:20:33.980Z,85.5116
2019-05-06T02:21:37.270Z,85.4475
2019-05-06T02:22:40.304Z,85.5329
2019-05-06T02:23:44.298Z,85.0065
2019-05-06T02:24:47.297Z,84.4663
2019-05-06T02:25:51.261Z,84.4953
2019-05-06T02:26:54.467Z,84.1688
2019-05-06T02:27:57.304Z,85.1667
2019-05-06T02:29:04.238Z,86.1295
2019-05-06T02:30:07.282Z,85.8732
2019-05-06T02:31:11.298Z,86.2852
2019-05-06T02:32:25.528Z,87.5105
2019-05-06T02:33:24.733Z,88.9540
2019-05-06T02:34:28.357Z,89.5613
2019-05-06T02:35:31.283Z,90.1305
2019-05-06T02:36:35.303Z,90.8568
2019-05-06T02:37:38.265Z,91.1742
2019-05-06T02:38:50.472Z,91.1864
2019-05-06T02:39:53.135Z,90.9575
2019-05-06T02:40:57.262Z,90.7530
2019-05-06T02:42:00.298Z,90.8431
2019-05-06T02:43:04.274Z,90.5516
2019-05-06T02:44:10.250Z,90.5135
2019-05-06T02:45:15.324Z,90.0008
2019-05-06T02:46:19.291Z,89.9596
2019-05-06T02:47:23.012Z,90.2220
2019-05-06T02:48:27.293Z,90.4326
2019-05-06T02:49:32.795Z,90.2754
2019-05-06T02:50:36.299Z,90.2251
2019-05-06T02:51:40.308Z,90.1930
2019-05-06T02:52:44.049Z,90.4097
2019-05-06T02:53:48.295Z,91.1238
2019-05-06T02:54:53.691Z,91.5068
2019-05-06T02:55:57.317Z,91.6136
2019-05-06T02:57:00.265Z,91.4534
2019-05-06T02:58:03.338Z,91.2001
2019-05-06T02:59:07.271Z,90.9773
2019-05-06T03:00:13.085Z,91.0765
2019-05-06T03:01:17.318Z,91.0719
2019-05-06T03:02:35.593Z,91.1284
2019-05-06T03:03:28.287Z,91.3619
2019-05-06T03:04:33.189Z,91.3695
2019-05-06T03:05:36.318Z,91.2322
2019-05-06T03:06:40.306Z,91.4931
2019-05-06T03:07:43.732Z,91.4794
2019-05-06T03:08:47.289Z,91.4427
2019-05-06T03:09:53.173Z,91.4122
2019-05-06T03:10:57.337Z,91.3939
2019-05-06T03:12:03.341Z,91.4931
2019-05-06T03:13:07.299Z,91.5587
2019-05-06T03:14:13.954Z,91.3436
2019-05-06T03:15:17.331Z,91.6533
2019-05-06T03:16:23.764Z,91.7327
2019-05-06T03:17:27.296Z,91.8959
2019-05-06T03:18:32.765Z,92.0211
2019-05-06T03:19:36.285Z,92.0806
2019-05-06T03:20:39.300Z,92.1630
2019-05-06T03:21:44.817Z,92.5734
2019-05-06T03:22:48.291Z,92.7535
2019-05-06T03:23:54.290Z,93.0877
2019-05-06T03:24:57.301Z,93.2937
2019-05-06T03:26:03.732Z,93.4035
2019-05-06T03:27:09.286Z,93.2876
2019-05-06T03:28:13.258Z,93.3349
2019-05-06T03:29:17.287Z,93.3852
2019-05-06T03:30:25.065Z,93.4630
2019-05-06T03:31:28.360Z,93.5073
2019-05-06T03:32:37.568Z,93.8521
2019-05-06T03:33:56.904Z,93.9925
2019-05-06T03:35:07.810Z,94.0536
2019-05-06T03:36:06.126Z,94.2672
2019-05-06T03:37:07.204Z,94.3969
2019-05-06T03:38:13.752Z,94.6242
2019-05-06T03:39:17.282Z,94.8348
2019-05-06T03:40:22.965Z,94.8760
2019-05-06T03:41:26.664Z,94.8669
2019-05-06T03:42:33.288Z,94.8760
2019-05-06T03:43:36.279Z,94.7494
2019-05-06T03:44:40.301Z,94.6944
2019-05-06T03:45:43.292Z,94.6792
2019-05-06T03:46:47.287Z,94.4564
2019-05-06T03:47:50.306Z,94.4228
2019-05-06T03:48:54.297Z,94.4060
2019-05-06T03:49:57.281Z,94.2916
2019-05-06T03:51:00.302Z,94.2962
2019-05-06T03:52:04.300Z,94.3542
2019-05-06T03:53:07.330Z,94.4411
2019-05-06T03:54:12.784Z,94.5190
2019-05-06T03:55:16.275Z,94.6242
2019-05-06T03:56:23.821Z,94.5342
2019-05-06T03:57:27.272Z,94.4015
2019-05-06T03:58:29.342Z,94.4228
2019-05-06T03:59:33.787Z,94.3740
2019-05-06T04:00:37.284Z,94.3038
2019-05-06T04:01:42.834Z,94.2321
2019-05-06T04:02:45.424Z,93.9391
2019-05-06T04:03:53.717Z,93.8155
2019-05-06T04:04:57.281Z,93.7881
2019-05-06T04:06:00.371Z,93.5317
2019-05-06T04:07:04.286Z,93.5531
2019-05-06T04:08:07.309Z,93.3425
2019-05-06T04:09:13.221Z,92.9595
2019-05-06T04:10:16.346Z,92.9824
2019-05-06T04:11:22.667Z,93.1197
2019-05-06T04:12:25.309Z,93.3883
2019-05-06T04:13:28.341Z,93.5821
2019-05-06T04:14:33.785Z,93.5363
2019-05-06T04:15:37.272Z,93.5714
2019-05-06T04:16:44.123Z,93.7408
2019-05-06T04:17:47.281Z,94.0475
2019-05-06T04:18:53.741Z,94.2580
2019-05-06T04:19:57.344Z,94.3358
2019-05-06T04:21:03.595Z,93.9834
2019-05-06T04:22:07.296Z,93.7408
2019-05-06T04:23:12.977Z,93.7469
2019-05-06T04:24:17.290Z,93.7194
2019-05-06T04:25:23.177Z,94.0337
2019-05-06T04:26:27.296Z,94.1115
2019-05-06T04:27:33.278Z,94.2901
2019-05-06T04:28:37.308Z,94.3358
2019-05-06T04:29:42.794Z,94.3771
2019-05-06T04:30:46.317Z,94.4015
2019-05-06T04:31:50.326Z,94.2031
2019-05-06T04:32:53.567Z,94.1344
2019-05-06T04:34:09.982Z,93.6858
2019-05-06T04:35:05.300Z,93.3349
2019-05-06T04:36:08.342Z,93.5363
2019-05-06T04:37:14.463Z,93.6492
2019-05-06T04:38:18.303Z,93.7865
2019-05-06T04:39:23.387Z,94.0352
2019-05-06T04:40:27.307Z,94.3633
2019-05-06T04:41:34.135Z,94.6212
2019-05-06T04:42:37.262Z,94.6258
2019-05-06T04:43:40.319Z,94.4503
2019-05-06T04:44:44.289Z,94.3816
2019-05-06T04:45:47.289Z,94.0169
2019-05-06T04:46:54.087Z,94.1863
2019-05-06T04:47:57.297Z,94.1802
2019-05-06T04:49:03.834Z,94.1894
2019-05-06T04:50:07.286Z,94.2718
2019-05-06T04:51:13.390Z,94.2046
2019-05-06T04:52:17.351Z,93.8796
2019-05-06T04:53:26.474Z,93.5622
2019-05-06T04:54:28.283Z,93.5409
2019-05-06T04:55:33.619Z,93.4997
2019-05-06T04:56:37.315Z,93.4844
2019-05-06T04:57:40.344Z,93.4539
2019-05-06T04:58:43.289Z,93.4081
2019-05-06T04:59:47.330Z,93.1517
2019-05-06T05:00:52.810Z,93.2097
2019-05-06T05:01:57.346Z,93.1334
2019-05-06T05:02:59.319Z,93.1548
2019-05-06T05:04:03.679Z,93.1838
2019-05-06T05:05:06.366Z,93.1090
2019-05-06T05:06:09.280Z,92.8359
2019-05-06T05:07:13.310Z,92.8023
2019-05-06T05:08:16.317Z,92.6101
2019-05-06T05:09:22.865Z,92.1584
2019-05-06T05:10:26.274Z,92.0882
2019-05-06T05:11:33.091Z,92.1523
2019-05-06T05:12:36.309Z,92.0668
2019-05-06T05:13:39.306Z,92.0897
2019-05-06T05:14:43.284Z,92.1019
2019-05-06T05:15:46.306Z,92.0302
2019-05-06T05:16:50.304Z,91.8792
2019-05-06T05:17:53.324Z,91.7510
2019-05-06T05:18:57.298Z,91.5999
2019-05-06T05:20:02.107Z,91.2825
2019-05-06T05:21:05.313Z,91.1910
2019-05-06T05:22:09.276Z,90.9545
2019-05-06T05:23:12.378Z,90.9026
2019-05-06T05:24:16.303Z,90.8812
2019-05-06T05:25:19.309Z,90.9316
2019-05-06T05:26:23.302Z,90.8537
2019-05-06T05:27:26.273Z,90.8812
2019-05-06T05:28:29.346Z,90.7896
2019-05-06T05:29:33.292Z,90.8476
2019-05-06T05:30:36.340Z,90.9682
2019-05-06T05:31:40.306Z,90.9072
2019-05-06T05:32:43.334Z,90.3410
2019-05-06T05:33:47.311Z,89.9107
2019-05-06T05:34:52.094Z,89.6345
2019-05-06T05:35:54.311Z,89.9641
2019-05-06T05:36:58.283Z,89.3233
2019-05-06T05:38:03.049Z,89.0944
2019-05-06T05:39:07.325Z,90.2296
2019-05-06T05:40:10.324Z,90.2525
2019-05-06T05:41:14.293Z,90.4875
2019-05-06T05:42:17.298Z,90.8537
2019-05-06T05:43:20.292Z,91.2688
2019-05-06T05:44:24.341Z,92.1157
2019-05-06T05:45:28.317Z,91.9112
2019-05-06T05:46:33.016Z,91.4260
2019-05-06T05:47:36.322Z,91.3252
2019-05-06T05:48:39.369Z,90.8446
2019-05-06T05:49:42.338Z,90.4921
2019-05-06T05:50:45.296Z,90.4326
2019-05-06T05:51:49.303Z,90.1701
2019-05-06T05:52:52.297Z,90.1106
2019-05-06T05:53:56.320Z,89.2317
2019-05-06T05:55:02.576Z,89.3294
2019-05-06T05:56:06.275Z,89.2363
2019-05-06T05:57:09.296Z,88.4779
2019-05-06T05:58:12.931Z,87.0985
2019-05-06T05:59:16.313Z,86.7964
2019-05-06T06:00:19.331Z,86.2425
2019-05-06T06:01:23.414Z,85.6214
2019-05-06T06:02:26.267Z,85.2140
2019-05-06T06:03:32.020Z,83.9124
2019-05-06T06:04:36.282Z,84.2252
2019-05-06T06:05:39.411Z,85.0614
2019-05-06T06:06:43.337Z,83.3860
2019-05-06T06:07:46.352Z,83.3768
2019-05-06T06:08:52.122Z,83.3265
2019-05-06T06:09:56.298Z,83.1083
2019-05-06T06:11:00.341Z,82.4720
2019-05-06T06:12:03.301Z,82.5391
2019-05-06T06:13:06.285Z,82.7726
2019-05-06T06:14:12.569Z,83.2624
2019-05-06T06:15:16.326Z,83.8666
2019-05-06T06:16:20.324Z,83.0900
2019-05-06T06:17:23.357Z,83.1128
2019-05-06T06:18:27.311Z,82.4079
2019-05-06T06:19:30.317Z,82.6535
2019-05-06T06:20:33.324Z,82.1653
2019-05-06T06:21:37.333Z,82.0874
2019-05-06T06:22:42.449Z,82.3346
2019-05-06T06:23:46.309Z,82.4537
2019-05-06T06:24:49.337Z,82.3621
2019-05-06T06:25:53.328Z,82.2339
2019-05-06T06:26:56.326Z,81.6480
2019-05-06T06:28:02.689Z,81.3230
2019-05-06T06:29:05.338Z,81.3962
2019-05-06T06:30:08.307Z,80.4334
2019-05-06T06:31:12.337Z,80.2747
2019-05-06T06:32:14.329Z,79.9084
2019-05-06T06:33:18.293Z,79.9344
2019-05-06T06:34:22.287Z,79.8810
2019-05-06T06:35:25.316Z,79.1791
2019-05-06T06:36:29.319Z,79.2752
2019-05-06T06:37:33.214Z,79.8215
2019-05-06T06:38:37.299Z,79.5239
2019-05-06T06:39:42.274Z,79.7894
2019-05-06T06:40:46.322Z,79.9680
2019-05-06T06:41:49.258Z,79.9481
2019-05-06T06:42:52.519Z,79.5636
2019-05-06T06:43:56.296Z,79.7070
2019-05-06T06:44:59.304Z,79.7757
2019-05-06T06:46:03.341Z,80.0366
2019-05-06T06:47:06.303Z,80.2411
2019-05-06T06:48:12.224Z,80.0641
2019-05-06T06:49:15.290Z,79.7009
2019-05-06T06:50:18.334Z,79.2386
2019-05-06T06:51:23.552Z,78.9792
2019-05-06T06:52:27.317Z,79.0555
2019-05-06T06:53:32.687Z,79.3179
2019-05-06T06:54:36.327Z,78.8235
2019-05-06T06:55:39.373Z,78.3963
2019-05-06T06:56:42.401Z,77.7752
2019-05-06T06:57:45.328Z,78.7274
2019-05-06T06:58:49.286Z,78.3978
2019-05-06T06:59:52.484Z,78.2956
2019-05-06T07:00:56.284Z,77.4685
2019-05-06T07:01:59.326Z,77.2290
2019-05-06T07:03:03.295Z,77.5372
2019-05-06T07:04:10.444Z,76.9741
2019-05-06T07:05:24.353Z,77.1557
2019-05-06T07:06:22.441Z,77.5128
2019-05-06T07:07:39.532Z,77.5372
2019-05-06T07:08:37.357Z,76.8444
2019-05-06T07:09:41.905Z,77.5586
2019-05-06T07:10:45.314Z,76.8414
2019-05-06T07:11:48.313Z,75.3445
2019-05-06T07:12:50.442Z,75.8297
2019-05-06T07:13:54.298Z,76.4569
2019-05-06T07:14:57.295Z,77.2030
2019-05-06T07:16:02.983Z,76.8719
2019-05-06T07:17:06.300Z,77.0108
2019-05-06T07:18:13.291Z,76.3455
2019-05-06T07:19:17.326Z,76.4843
2019-05-06T07:20:22.869Z,76.8872
2019-05-06T07:21:26.338Z,76.5011
2019-05-06T07:22:29.291Z,76.0754
2019-05-06T07:23:33.336Z,76.3836
2019-05-06T07:24:36.294Z,75.9625
2019-05-06T07:25:42.829Z,75.3948
2019-05-06T07:26:46.285Z,75.5947
2019-05-06T07:27:48.355Z,75.7137
2019-05-06T07:28:52.737Z,76.0433
2019-05-06T07:29:56.300Z,75.7198
2019-05-06T07:31:14.882Z,75.5184
2019-05-06T07:32:08.276Z,74.8791
2019-05-06T07:33:13.340Z,76.0037
2019-05-06T07:34:17.291Z,76.3592
2019-05-06T07:35:22.410Z,75.4803
2019-05-06T07:36:27.338Z,75.7702
2019-05-06T07:37:32.627Z,75.5276
2019-05-06T07:38:36.290Z,74.5357
2019-05-06T07:39:38.272Z,74.4991
2019-05-06T07:40:42.294Z,74.4228
2019-05-06T07:41:46.140Z,74.8852
2019-05-06T07:42:49.289Z,74.4671
2019-05-06T07:43:53.310Z,71.9402
2019-05-06T07:44:56.337Z,70.7454
2019-05-06T07:46:02.460Z,72.1691
2019-05-06T07:47:06.313Z,73.2311
2019-05-06T07:48:12.647Z,73.7591
2019-05-06T07:49:16.343Z,73.3516
2019-05-06T07:50:19.268Z,72.2698
2019-05-06T07:51:23.932Z,72.7153
2019-05-06T07:52:27.358Z,72.7291
2019-05-06T07:53:32.069Z,72.8511
2019-05-06T07:54:35.276Z,71.0704
2019-05-06T07:55:39.309Z,70.6859
2019-05-06T07:56:42.843Z,70.4448
2019-05-06T07:57:46.333Z,69.4087
2019-05-06T07:58:52.762Z,70.3792
2019-05-06T07:59:56.278Z,71.2123
2019-05-06T08:01:02.667Z,70.9331
2019-05-06T08:02:06.298Z,70.5730
2019-05-06T08:03:10.349Z,70.6264
2019-05-06T08:04:14.342Z,65.3803
2019-05-06T08:05:17.301Z,66.5034
2019-05-06T08:06:22.647Z,64.5121
2019-05-06T08:07:26.294Z,65.3864
2019-05-06T08:08:30.353Z,65.8213
2019-05-06T08:09:33.315Z,67.8859
2019-05-06T08:10:37.333Z,64.8737
2019-05-06T08:11:42.155Z,64.2603
2019-05-06T08:12:45.337Z,64.5762
2019-05-06T08:13:49.319Z,64.4099
2019-05-06T08:14:52.548Z,63.9155
2019-05-06T08:15:56.330Z,64.8875
2019-05-06T08:16:58.298Z,63.7873
2019-05-06T08:18:03.485Z,65.6458
2019-05-06T08:19:07.357Z,66.1494
2019-05-06T08:20:12.721Z,65.3483
2019-05-06T08:21:16.337Z,65.2857
2019-05-06T08:22:19.312Z,66.2089
2019-05-06T08:23:23.314Z,68.9433
2019-05-06T08:24:26.346Z,67.2023
2019-05-06T08:25:32.811Z,66.7414
2019-05-06T08:26:36.255Z,66.0456
2019-05-06T08:27:39.307Z,65.4185
2019-05-06T08:28:44.520Z,64.7318
2019-05-06T08:29:48.362Z,61.9791
2019-05-06T08:30:53.122Z,63.0884
2019-05-06T08:31:56.315Z,64.4022
2019-05-06T08:33:02.242Z,64.1352
2019-05-06T08:34:05.303Z,63.6042
2019-05-06T08:35:09.972Z,63.3387
2019-05-06T08:36:14.790Z,64.8875
2019-05-06T08:37:18.301Z,64.6342
2019-05-06T08:38:22.651Z,64.3015
2019-05-06T08:39:26.312Z,64.3870
2019-05-06T08:40:32.089Z,63.3753
2019-05-06T08:41:35.327Z,62.5574
2019-05-06T08:42:38.277Z,63.8422
2019-05-06T08:43:42.331Z,64.2100
2019-05-06T08:44:45.301Z,65.2613
2019-05-06T08:45:49.384Z,64.4480
2019-05-06T08:46:53.254Z,63.2197
2019-05-06T08:47:57.292Z,63.1922
2019-05-06T08:49:00.839Z,61.2787
2019-05-06T08:50:05.305Z,61.5320
2019-05-06T08:51:09.333Z,60.0290
2019-05-06T08:52:12.997Z,58.0667
2019-05-06T08:53:16.308Z,57.4807
2019-05-06T08:54:19.311Z,59.8062
2019-05-06T08:55:23.342Z,62.4277
2019-05-06T08:56:26.324Z,61.3993
2019-05-06T08:57:29.332Z,59.1012
2019-05-06T08:58:33.334Z,58.2223
2019-05-06T08:59:36.341Z,58.3215
2019-05-06T09:00:40.291Z,57.0489
2019-05-06T09:01:43.322Z,56.4767
2019-05-06T09:02:47.307Z,58.2849
2019-05-06T09:04:05.046Z,56.9909
2019-05-06T09:04:58.301Z,57.2793
2019-05-06T09:06:03.168Z,56.9253
2019-05-06T09:07:07.338Z,57.6593
2019-05-06T09:08:13.634Z,59.9802
2019-05-06T09:09:17.369Z,60.3372
2019-05-06T09:10:22.695Z,59.8962
2019-05-06T09:11:26.292Z,57.8561
2019-05-06T09:12:29.320Z,60.1846
2019-05-06T09:13:33.358Z,58.9731
2019-05-06T09:14:36.321Z,59.7955
2019-05-06T09:15:40.307Z,59.1150
2019-05-06T09:16:43.928Z,58.9410
2019-05-06T09:17:48.335Z,59.8795
2019-05-06T09:18:53.341Z,60.6058
2019-05-06T09:19:56.321Z,59.9924
2019-05-06T09:21:02.819Z,60.6073
2019-05-06T09:22:06.302Z,59.8413
2019-05-06T09:23:12.269Z,58.4741
2019-05-06T09:24:16.277Z,57.7417
2019-05-06T09:25:20.324Z,58.0850
2019-05-06T09:26:23.301Z,57.3846
2019-05-06T09:27:26.299Z,55.1324
2019-05-06T09:28:30.347Z,55.3521
2019-05-06T09:29:33.284Z,54.9294
2019-05-06T09:30:37.328Z,54.3267
2019-05-06T09:31:39.327Z,53.5760
2019-05-06T09:32:43.315Z,53.3242
2019-05-06T09:33:46.320Z,52.1798
2019-05-06T09:34:49.283Z,52.0134
2019-05-06T09:35:53.306Z,51.6609
2019-05-06T09:36:56.323Z,53.5027
2019-05-06T09:38:02.209Z,54.0322
2019-05-06T09:39:05.328Z,54.3389
2019-05-06T09:40:09.310Z,54.2748
2019-05-06T09:41:13.342Z,54.0139
2019-05-06T09:42:16.325Z,53.1991
2019-05-06T09:43:22.282Z,53.4691
2019-05-06T09:44:26.333Z,52.5551
2019-05-06T09:45:29.309Z,54.3664
2019-05-06T09:46:32.320Z,55.5795
2019-05-06T09:47:37.273Z,55.6847
2019-05-06T09:48:42.325Z,55.2361
2019-05-06T09:49:46.309Z,56.1212
2019-05-06T09:50:50.419Z,55.5337
2019-05-06T09:51:53.325Z,56.7239
2019-05-06T09:52:57.275Z,55.2728
2019-05-06T09:54:03.742Z,55.3613
2019-05-06T09:55:07.335Z,53.7484
2019-05-06T09:56:12.965Z,54.1604
2019-05-06T09:57:16.314Z,54.7570
2019-05-06T09:58:22.733Z,51.5572
2019-05-06T09:59:26.327Z,53.4936
2019-05-06T10:00:32.694Z,52.9946
2019-05-06T10:01:36.404Z,53.5927
2019-05-06T10:02:42.858Z,52.6696
2019-05-06T10:03:46.333Z,53.9925
2019-05-06T10:04:49.284Z,54.3618
2019-05-06T10:05:55.375Z,54.8196
2019-05-06T10:07:00.103Z,53.9773
2019-05-06T10:08:04.336Z,55.2285
2019-05-06T10:09:07.293Z,55.2636
2019-05-06T10:10:11.316Z,55.6207
2019-05-06T10:11:13.343Z,51.6014
2019-05-06T10:12:16.339Z,52.4315
2019-05-06T10:13:20.308Z,54.4350
2019-05-06T10:14:23.565Z,54.6593
2019-05-06T10:15:27.349Z,54.5968
2019-05-06T10:16:32.394Z,51.7479
2019-05-06T10:17:36.313Z,53.6858
2019-05-06T10:18:39.332Z,54.1878
2019-05-06T10:19:42.886Z,52.4544
2019-05-06T10:20:47.283Z,53.0175
2019-05-06T10:21:50.347Z,54.2214
2019-05-06T10:22:54.323Z,53.0800
2019-05-06T10:23:57.314Z,54.6426
2019-05-06T10:25:03.716Z,53.5515
2019-05-06T10:26:07.303Z,52.1248
2019-05-06T10:27:12.089Z,53.2601
2019-05-06T10:28:16.297Z,54.0597
2019-05-06T10:29:19.312Z,52.3583
2019-05-06T10:30:23.311Z,52.6452
2019-05-06T10:31:26.311Z,54.2473
2019-05-06T10:32:30.318Z,54.2168
2019-05-06T10:33:33.317Z,53.1762
2019-05-06T10:34:36.294Z,54.7463
2019-05-06T10:35:42.685Z,52.5597
2019-05-06T10:36:46.336Z,52.3720
2019-05-06T10:37:52.481Z,52.9152
2019-05-06T10:38:56.325Z,51.9692
2019-05-06T10:40:02.861Z,52.0287
2019-05-06T10:41:07.604Z,52.2286
2019-05-06T10:42:13.211Z,53.8994
2019-05-06T10:43:17.337Z,52.8740
2019-05-06T10:44:22.376Z,52.1248
2019-05-06T10:45:26.305Z,52.3018
2019-05-06T10:46:28.345Z,51.8807
2019-05-06T10:47:33.054Z,53.8598
2019-05-06T10:48:36.336Z,54.8989
2019-05-06T10:49:39.347Z,55.4055
2019-05-06T10:50:43.283Z,53.0175
2019-05-06T10:51:46.351Z,51.5602
2019-05-06T10:52:51.798Z,55.2270
2019-05-06T10:53:55.279Z,52.0195
2019-05-06T10:54:59.329Z,52.2515
2019-05-06T10:56:02.447Z,53.3730
2019-05-06T10:57:05.351Z,53.6339
2019-05-06T10:58:09.269Z,55.1736
2019-05-06T10:59:12.982Z,54.8211
2019-05-06T11:00:16.346Z,54.2351
2019-05-06T11:01:19.320Z,53.3501
2019-05-06T11:02:23.373Z,53.8369
2019-05-06T11:03:27.670Z,50.4479
2019-05-06T11:04:33.144Z,51.9768
2019-05-06T11:05:37.327Z,51.8959
2019-05-06T11:06:42.833Z,51.4275
2019-05-06T11:07:46.317Z,52.6497
2019-05-06T11:08:48.325Z,52.6360
2019-05-06T11:09:53.301Z,51.0796
2019-05-06T11:10:56.359Z,50.0999
2019-05-06T11:11:59.278Z,48.4352
2019-05-06T11:13:03.489Z,49.1173
2019-05-06T11:14:07.330Z,49.4240
2019-05-06T11:15:12.409Z,50.8888
2019-05-06T11:16:17.035Z,51.5434
2019-05-06T11:17:23.264Z,53.1960
2019-05-06T11:18:27.326Z,52.9259
2019-05-06T11:19:30.278Z,52.1889
2019-05-06T11:20:34.333Z,50.8965
2019-05-06T11:21:37.311Z,52.5414
2019-05-06T11:22:43.461Z,52.1004
2019-05-06T11:23:47.347Z,50.2098
2019-05-06T11:24:51.336Z,46.3416
2019-05-06T11:25:54.270Z,48.4245
2019-05-06T11:26:57.292Z,48.3757
2019-05-06T11:28:02.969Z,49.2317
2019-05-06T11:29:06.292Z,50.2693
2019-05-06T11:30:10.308Z,49.9031
2019-05-06T11:31:14.137Z,49.9077
2019-05-06T11:32:21.049Z,50.8064
2019-05-06T11:33:24.325Z,52.8740
2019-05-06T11:34:27.294Z,51.6106
2019-05-06T11:35:32.517Z,51.1025
2019-05-06T11:36:37.631Z,51.2276
2019-05-06T11:37:46.974Z,51.0491
2019-05-06T11:38:52.149Z,51.0567
2019-05-06T11:39:56.322Z,48.6992
2019-05-06T11:40:59.319Z,51.8547
2019-05-06T11:42:23.959Z,51.9417
2019-05-06T11:43:11.962Z,51.2261
2019-05-06T11:44:15.364Z,51.8364
2019-05-06T11:45:19.290Z,51.1315
2019-05-06T11:46:22.850Z,50.7729
2019-05-06T11:47:26.288Z,52.2698
2019-05-06T11:48:29.287Z,50.5943
2019-05-06T11:49:32.748Z,51.6030
2019-05-06T11:50:36.284Z,52.0790
2019-05-06T11:51:39.339Z,51.0018
2019-05-06T11:52:43.674Z,51.9188
2019-05-06T11:53:47.304Z,52.3217
2019-05-06T11:54:52.821Z,49.6239
2019-05-06T11:55:56.330Z,53.2540
2019-05-06T11:56:59.294Z,50.4814
2019-05-06T11:58:02.706Z,50.8370
2019-05-06T11:59:06.301Z,52.2103
2019-05-06T12:00:12.504Z,52.7596
2019-05-06T12:01:16.306Z,53.1670
2019-05-06T12:02:20.297Z,52.5048
2019-05-06T12:03:23.433Z,48.4154
2019-05-06T12:04:28.301Z,50.4952
2019-05-06T12:05:33.012Z,50.3624
2019-05-06T12:06:36.367Z,48.7633
2019-05-06T12:07:40.340Z,48.6870
2019-05-06T12:08:43.370Z,49.7124
2019-05-06T12:09:47.325Z,51.9219
2019-05-06T12:10:52.018Z,53.4478
2019-05-06T12:11:55.301Z,52.7413
2019-05-06T12:12:59.330Z,47.0695
2019-05-06T12:14:02.647Z,49.5109
2019-05-06T12:15:07.162Z,49.2134
2019-05-06T12:16:13.731Z,47.7516
2019-05-06T12:17:18.326Z,46.9795
2019-05-06T12:18:23.071Z,49.7169
2019-05-06T12:19:26.399Z,50.4723
2019-05-06T12:20:30.318Z,49.5888
2019-05-06T12:21:33.294Z,50.0557
2019-05-06T12:22:36.315Z,49.4957
2019-05-06T12:23:39.324Z,48.0369
2019-05-06T12:24:43.308Z,48.3833
2019-05-06T12:25:46.467Z,50.7469
2019-05-06T12:26:49.363Z,50.7912
2019-05-06T12:27:53.301Z,50.5165
2019-05-06T12:28:56.286Z,50.1289
2019-05-06T12:30:00.345Z,47.0710
2019-05-06T12:31:03.306Z,45.7969
2019-05-06T12:32:07.309Z,48.9372
2019-05-06T12:33:10.299Z,49.7795
2019-05-06T12:34:14.764Z,48.7953
2019-05-06T12:35:18.319Z,50.2556
2019-05-06T12:36:21.312Z,51.2810
2019-05-06T12:37:25.318Z,53.0709
2019-05-06T12:38:30.839Z,52.4987
2019-05-06T12:39:35.297Z,52.6284
2019-05-06T12:40:38.355Z,50.0771
2019-05-06T12:41:43.059Z,50.0175
2019-05-06T12:42:47.351Z,50.0130
2019-05-06T12:43:50.329Z,50.4158
2019-05-06T12:44:54.327Z,52.3491
2019-05-06T12:45:57.327Z,50.3258
2019-05-06T12:47:03.340Z,50.3441
2019-05-06T12:48:07.283Z,51.1589
2019-05-06T12:49:12.585Z,49.6651
2019-05-06T12:50:16.299Z,50.9575
2019-05-06T12:51:19.367Z,50.3288
2019-05-06T12:52:23.367Z,50.2983
2019-05-06T12:53:26.319Z,51.8044
2019-05-06T12:54:30.313Z,51.5145